Time;durP1;ratioP1;P1;durP2;ratioP2;P2;SDS_P1;SDS_P2;PMS_P1;PMS_P2;Temp;Humidity;BMP_temperature;BMP_pressure;BME280_temperature;BME280_humidity;BME280_pressure;Samples;Min_cycle;Max_cycle;Signal;HPM_P1;HPM_P2
2022/07/16 00:03:22;;;;;;;6.00;3.60;;;17.60;99.90;;;;;;5077195;28;21189;-73
2022/07/16 00:05:48;;;;;;;4.90;3.13;;;17.60;99.90;;;;;;5058829;28;20624;-72
2022/07/16 00:08:15;;;;;;;3.60;3.20;;;17.70;99.90;;;;;;5077141;28;20581;-72
2022/07/16 00:10:41;;;;;;;3.63;3.33;;;17.60;99.90;;;;;;5077509;28;20582;-72
2022/07/16 00:13:08;;;;;;;12.03;5.03;;;17.50;99.90;;;;;;5077787;28;20621;-72
2022/07/16 00:15:34;;;;;;;4.20;3.80;;;17.40;99.90;;;;;;5077613;28;20592;-72
2022/07/16 00:20:46;;;;;;;4.00;3.60;;;17.20;99.90;;;;;;5078242;28;21049;-72
2022/07/16 00:23:12;;;;;;;4.27;3.97;;;17.20;99.90;;;;;;5077389;28;20633;-72
2022/07/16 00:25:39;;;;;;;4.00;3.80;;;17.30;99.90;;;;;;5076254;28;21130;-72
2022/07/16 00:28:05;;;;;;;5.00;4.10;;;17.30;99.90;;;;;;5057940;28;20618;-72
2022/07/16 00:30:32;;;;;;;4.03;3.60;;;17.30;99.90;;;;;;5076700;28;20927;-72
2022/07/16 00:32:58;;;;;;;3.10;2.90;;;17.20;99.90;;;;;;5059353;28;20599;-72
2022/07/16 00:35:26;;;;;;;3.37;3.17;;;17.10;99.90;;;;;;5076849;28;20629;-72
2022/07/16 00:37:52;;;;;;;5.03;3.57;;;17.10;99.90;;;;;;5076472;28;20633;-72
2022/07/16 00:40:19;;;;;;;5.47;3.80;;;17.00;99.90;;;;;;5042970;28;21194;-72
2022/07/16 00:42:45;;;;;;;3.90;3.60;;;17.00;99.90;;;;;;5076724;28;20637;-72
2022/07/16 00:45:12;;;;;;;3.90;3.70;;;17.00;99.90;;;;;;5076733;28;20586;-72
2022/07/16 00:47:39;;;;;;;6.23;4.33;;;17.00;99.90;;;;;;5078132;28;20574;-73
2022/07/16 00:50:06;;;;;;;3.67;3.23;;;16.90;99.90;;;;;;5077353;28;21104;-73
2022/07/16 00:52:36;;;;;;;2.93;2.73;;;16.90;99.90;;;;;;5077502;28;21006;-73
2022/07/16 00:55:03;;;;;;;3.93;3.63;;;16.80;99.90;;;;;;5078257;28;20604;-73
2022/07/16 00:57:30;;;;;;;2.87;2.77;;;16.70;99.90;;;;;;5078192;28;20575;-72
2022/07/16 00:59:56;;;;;;;6.30;3.90;;;16.60;99.90;;;;;;5076425;28;20581;-73
2022/07/16 01:02:23;;;;;;;3.90;3.60;;;16.50;99.90;;;;;;5076336;28;20923;-73
2022/07/16 01:04:50;;;;;;;4.47;3.53;;;16.40;99.90;;;;;;5075541;28;20579;-73
2022/07/16 01:07:17;;;;;;;6.93;4.07;;;16.20;99.90;;;;;;5057788;28;20601;-74
2022/07/16 01:09:44;;;;;;;3.60;3.40;;;16.10;99.90;;;;;;5075619;28;20933;-74
2022/07/16 01:12:11;;;;;;;5.10;3.33;;;16.20;99.90;;;;;;5075245;28;20574;-74
2022/07/16 01:14:38;;;;;;;5.03;3.30;;;16.20;99.90;;;;;;5075483;28;20582;-74
2022/07/16 01:17:04;;;;;;;4.00;3.60;;;16.20;99.90;;;;;;5075107;28;21135;-74
2022/07/16 01:19:31;;;;;;;5.60;3.60;;;16.20;99.90;;;;;;5075577;28;20574;-74
2022/07/16 01:21:57;;;;;;;4.83;3.17;;;16.20;99.90;;;;;;5057714;28;20606;-74
2022/07/16 01:24:24;;;;;;;5.03;3.27;;;16.20;99.90;;;;;;5074899;28;20672;-74
2022/07/16 01:26:50;;;;;;;3.70;3.50;;;16.30;99.90;;;;;;5075116;28;20578;-74
2022/07/16 01:29:17;;;;;;;3.93;3.30;;;16.30;99.90;;;;;;5075237;28;20952;-74
2022/07/16 01:31:43;;;;;;;3.27;3.10;;;16.30;99.90;;;;;;5074327;28;20617;-74
2022/07/16 01:34:25;;;;;;;3.77;3.30;;;16.10;99.90;;;;;;5053337;28;20627;-73
2022/07/16 01:37:03;;;;;;;3.67;3.17;;;15.80;99.90;;;;;;5071826;28;20666;-74
2022/07/16 01:39:32;;;;;;;4.33;3.10;;;15.50;99.90;;;;;;5058541;28;20661;-74
2022/07/16 01:42:02;;;;;;;3.23;3.03;;;15.40;99.90;;;;;;5074520;28;20561;-74
2022/07/16 01:44:31;;;;;;;4.43;3.50;;;15.40;99.90;;;;;;5074786;28;20627;-74
2022/07/16 01:46:58;;;;;;;3.60;3.10;;;15.30;99.90;;;;;;5056886;28;20566;-72
2022/07/16 01:49:30;;;;;;;3.20;3.10;;;15.30;99.90;;;;;;5074801;28;20594;-73
2022/07/16 01:51:57;;;;;;;3.90;3.60;;;15.40;99.90;;;;;;5074551;28;20552;-73
2022/07/16 01:54:23;;;;;;;3.57;3.27;;;15.40;99.90;;;;;;5074703;28;20540;-73
2022/07/16 01:56:50;;;;;;;4.80;3.73;;;15.30;99.90;;;;;;5074468;28;20620;-73
2022/07/16 01:59:16;;;;;;;3.60;3.30;;;15.20;99.90;;;;;;5074307;28;20599;-73
2022/07/16 02:01:43;;;;;;;4.70;3.83;;;15.00;99.90;;;;;;5074214;28;21082;-73
2022/07/16 02:04:09;;;;;;;6.50;3.90;;;14.90;99.90;;;;;;5073986;28;21224;-73
2022/07/16 02:06:35;;;;;;;5.13;3.23;;;14.80;99.90;;;;;;5074223;28;20602;-73
2022/07/16 02:09:02;;;;;;;3.73;3.27;;;14.90;99.90;;;;;;5074631;28;20579;-73
2022/07/16 02:11:29;;;;;;;4.23;3.83;;;14.90;99.90;;;;;;5073424;28;20977;-74
2022/07/16 02:13:55;;;;;;;3.70;3.47;;;14.90;99.90;;;;;;5073728;28;20591;-74
2022/07/16 02:16:22;;;;;;;4.00;3.17;;;14.70;99.90;;;;;;5056510;28;20567;-74
2022/07/16 02:18:48;;;;;;;3.67;3.37;;;14.60;99.90;;;;;;5073938;28;21172;-74
2022/07/16 02:21:14;;;;;;;4.90;4.07;;;14.60;99.90;;;;;;5072131;28;20612;-74
2022/07/16 02:23:41;;;;;;;3.83;3.53;;;14.60;99.90;;;;;;5074033;28;20661;-74
2022/07/16 02:26:07;;;;;;;4.40;3.70;;;14.50;99.90;;;;;;5073924;28;20575;-73
2022/07/16 02:28:34;;;;;;;4.17;3.77;;;14.40;99.90;;;;;;5074022;28;20595;-73
2022/07/16 02:31:00;;;;;;;5.90;3.90;;;14.30;99.90;;;;;;5073992;28;20587;-73
2022/07/16 02:33:27;;;;;;;3.80;3.50;;;14.20;99.90;;;;;;5073856;28;20615;-73
2022/07/16 02:35:53;;;;;;;4.43;4.03;;;14.10;99.90;;;;;;5073677;28;20597;-73
2022/07/16 02:38:20;;;;;;;4.93;4.23;;;14.20;99.90;;;;;;5073867;28;20579;-73
2022/07/16 02:40:46;;;;;;;3.97;3.50;;;14.20;99.90;;;;;;5073391;28;20951;-74
2022/07/16 02:43:13;;;;;;;4.60;4.20;;;14.30;99.90;;;;;;5073680;28;20637;-74
2022/07/16 02:45:41;;;;;;;4.83;3.27;;;14.30;99.90;;;;;;5072287;28;20611;-73
2022/07/16 02:48:10;;;;;;;3.90;3.70;;;14.40;99.90;;;;;;5073190;28;20630;-73
2022/07/16 02:50:37;;;;;;;5.20;4.23;;;14.30;99.90;;;;;;5073648;28;20618;-73
2022/07/16 02:53:04;;;;;;;4.23;3.90;;;14.20;99.90;;;;;;5073801;28;20579;-73
2022/07/16 02:55:30;;;;;;;3.80;3.60;;;14.20;99.90;;;;;;5073341;28;20574;-73
2022/07/16 02:57:57;;;;;;;5.03;3.70;;;14.10;99.90;;;;;;5055166;28;21213;-73
2022/07/16 03:00:25;;;;;;;8.30;4.07;;;13.90;99.90;;;;;;5072769;28;21118;-73
2022/07/16 03:02:52;;;;;;;4.63;4.20;;;13.80;99.90;;;;;;5072686;28;20601;-73
2022/07/16 03:05:18;;;;;;;3.77;3.50;;;13.70;99.90;;;;;;5072549;28;20610;-72
2022/07/16 03:07:45;;;;;;;4.90;4.40;;;13.60;99.90;;;;;;5073207;28;20969;-73
2022/07/16 03:10:12;;;;;;;4.37;4.07;;;13.50;99.90;;;;;;5073308;28;20582;-73
2022/07/16 03:12:39;;;;;;;4.40;4.10;;;13.50;99.90;;;;;;5073502;28;20654;-73
2022/07/16 03:15:07;;;;;;;4.27;3.87;;;13.50;99.90;;;;;;5073581;28;20557;-73
2022/07/16 03:17:34;;;;;;;4.27;4.00;;;13.50;99.90;;;;;;5073398;28;21151;-73
2022/07/16 03:20:01;;;;;;;5.45;4.78;;;13.70;99.90;;;;;;5073707;28;20586;-72
2022/07/16 03:22:27;;;;;;;4.63;4.03;;;13.60;99.90;;;;;;5073522;28;20185;-72
2022/07/16 03:24:53;;;;;;;6.80;4.73;;;13.50;99.90;;;;;;5076773;28;20661;-73
2022/07/16 03:27:20;;;;;;;5.10;4.80;;;13.60;99.90;;;;;;5078514;28;20678;-73
2022/07/16 03:29:47;;;;;;;4.20;3.90;;;13.60;99.90;;;;;;5078293;28;20176;-72
2022/07/16 03:32:13;;;;;;;4.13;3.83;;;13.50;99.90;;;;;;5077644;28;20202;-73
2022/07/16 03:34:40;;;;;;;5.87;4.73;;;13.50;99.90;;;;;;5078195;28;20589;-72
2022/07/16 03:37:07;;;;;;;5.60;4.57;;;13.60;99.90;;;;;;5059574;28;20633;-72
2022/07/16 03:39:33;;;;;;;4.57;4.27;;;13.80;99.90;;;;;;5077471;28;20620;-72
2022/07/16 03:41:59;;;;;;;4.50;4.07;;;13.80;99.90;;;;;;5077805;28;20553;-72
2022/07/16 03:44:26;;;;;;;4.33;3.93;;;13.90;99.90;;;;;;5077087;28;20597;-73
2022/07/16 03:46:53;;;;;;;4.30;4.00;;;13.80;99.90;;;;;;5076897;28;20534;-73
2022/07/16 03:49:19;;;;;;;4.73;4.33;;;13.90;99.90;;;;;;5077141;28;20977;-73
2022/07/16 03:51:45;;;;;;;5.38;4.00;;;13.80;99.90;;;;;;5077384;28;20582;-72
2022/07/16 03:54:12;;;;;;;5.30;4.73;;;13.70;99.90;;;;;;5076706;28;20192;-72
2022/07/16 03:56:38;;;;;;;5.07;4.73;;;13.60;99.90;;;;;;5077468;28;20552;-73
2022/07/16 03:59:05;;;;;;;4.90;4.47;;;13.60;99.90;;;;;;5076654;28;20919;-73
2022/07/16 04:01:31;;;;;;;8.30;4.33;;;13.50;99.90;;;;;;5058259;28;21184;-73
2022/07/16 04:03:58;;;;;;;4.70;4.37;;;13.50;99.90;;;;;;5058837;28;20628;-72
2022/07/16 04:06:24;;;;;;;4.97;4.68;;;13.40;99.90;;;;;;5077084;28;20564;-72
2022/07/16 04:08:51;;;;;;;4.38;4.03;;;13.30;99.90;;;;;;5058919;28;20206;-73
2022/07/16 04:11:17;;;;;;;7.87;5.10;;;13.20;99.90;;;;;;5076781;28;20257;-72
2022/07/16 04:13:44;;;;;;;5.03;4.70;;;13.10;99.90;;;;;;5076682;28;20590;-72
2022/07/16 04:16:11;;;;;;;5.30;4.90;;;13.00;99.90;;;;;;5076923;28;20576;-72
2022/07/16 04:18:38;;;;;;;7.23;4.93;;;12.90;99.90;;;;;;5077124;28;20589;-72
2022/07/16 04:21:05;;;;;;;5.13;4.77;;;13.00;99.90;;;;;;5076923;28;21172;-72
2022/07/16 04:23:32;;;;;;;4.93;4.63;;;13.00;99.90;;;;;;5076443;28;20668;-72
2022/07/16 04:25:58;;;;;;;6.07;4.87;;;13.10;99.90;;;;;;5076543;28;20934;-72
2022/07/16 04:28:25;;;;;;;5.10;4.60;;;13.10;99.90;;;;;;5076765;28;20912;-72
2022/07/16 04:30:51;;;;;;;5.40;4.90;;;13.00;99.90;;;;;;5076778;28;20663;-72
2022/07/16 04:33:18;;;;;;;4.90;4.30;;;13.20;99.90;;;;;;5076837;28;20597;-72
2022/07/16 04:35:44;;;;;;;5.13;4.67;;;13.20;99.90;;;;;;5075583;28;20571;-72
2022/07/16 04:38:11;;;;;;;6.90;4.80;;;13.20;99.90;;;;;;5076236;28;20629;-72
2022/07/16 04:40:37;;;;;;;4.87;4.47;;;13.30;99.90;;;;;;5044674;28;20232;-72
2022/07/16 04:43:04;;;;;;;5.45;4.65;;;13.20;99.90;;;;;;5056510;28;20599;-72
2022/07/16 04:45:30;;;;;;;5.17;4.67;;;13.30;99.90;;;;;;5056361;28;20204;-72
2022/07/16 04:47:57;;;;;;;5.23;4.83;;;13.30;99.90;;;;;;5055970;28;20579;-72
2022/07/16 04:50:24;;;;;;;5.07;4.77;;;13.50;99.90;;;;;;5056077;28;20645;-72
2022/07/16 04:52:50;;;;;;;7.55;5.13;;;13.60;99.90;;;;;;5056057;28;20572;-72
2022/07/16 04:55:17;;;;;;;5.23;4.83;;;13.60;99.90;;;;;;5056041;28;20529;-72
2022/07/16 04:57:43;;;;;;;4.70;4.40;;;13.60;99.90;;;;;;5038130;28;20921;-72
2022/07/16 05:00:10;;;;;;;4.50;4.30;;;13.90;99.90;;;;;;5037895;28;20623;-72
2022/07/16 05:05:22;;;;;;;7.10;4.10;;;14.30;99.90;;;;;;5056307;28;20637;-72
2022/07/16 05:07:49;;;;;;;6.00;4.10;;;14.40;99.90;;;;;;5055826;28;20585;-72
2022/07/16 05:10:16;;;;;;;4.53;3.80;;;14.60;99.90;;;;;;5056014;28;20594;-72
2022/07/16 05:12:42;;;;;;;7.40;4.70;;;14.70;99.90;;;;;;5037710;28;20589;-72
2022/07/16 05:15:09;;;;;;;4.87;3.40;;;15.00;99.90;;;;;;5055906;28;20615;-72
2022/07/16 05:17:36;;;;;;;4.60;4.23;;;15.00;99.90;;;;;;5056594;28;20613;-72
2022/07/16 05:20:03;;;;;;;4.70;3.83;;;15.00;99.90;;;;;;5054809;28;21043;-72
2022/07/16 05:22:31;;;;;;;4.90;4.40;;;15.30;99.90;;;;;;5055423;28;20984;-72
2022/07/16 05:24:57;;;;;;;4.60;4.20;;;15.40;99.90;;;;;;5054339;28;20682;-72
2022/07/16 05:27:24;;;;;;;3.40;3.20;;;15.30;99.90;;;;;;5055223;28;20935;-73
2022/07/16 05:29:50;;;;;;;7.80;4.00;;;15.60;99.90;;;;;;5037734;28;21046;-73
2022/07/16 05:32:16;;;;;;;6.90;4.00;;;15.80;99.90;;;;;;5053604;28;20631;-73
2022/07/16 05:34:43;;;;;;;4.60;4.30;;;16.00;99.90;;;;;;5055749;28;20603;-72
2022/07/16 05:37:09;;;;;;;3.43;3.23;;;15.90;99.90;;;;;;5054718;28;20587;-73
2022/07/16 05:39:36;;;;;;;8.00;3.73;;;16.20;99.90;;;;;;5058558;28;20649;-73
2022/07/16 05:42:02;;;;;;;3.53;3.30;;;16.50;99.90;;;;;;5073435;28;20645;-73
2022/07/16 05:44:29;;;;;;;3.97;3.43;;;16.70;99.90;;;;;;5075374;28;20634;-73
2022/07/16 05:46:55;;;;;;;4.80;4.50;;;16.90;99.90;;;;;;5074413;28;20949;-73
2022/07/16 05:49:22;;;;;;;15.00;3.90;;;17.00;99.90;;;;;;5074911;28;20898;-73
2022/07/16 05:51:48;;;;;;;3.70;2.73;;;17.30;99.90;;;;;;5074630;28;20631;-72
2022/07/16 05:54:15;;;;;;;6.13;3.13;;;17.60;99.90;;;;;;5075312;28;21100;-73
2022/07/16 05:56:41;;;;;;;3.30;3.00;;;17.70;99.90;;;;;;5075269;28;20937;-73
2022/07/16 05:59:08;;;;;;;2.90;2.70;;;17.90;99.90;;;;;;5075494;28;20600;-73
2022/07/16 06:01:34;;;;;;;9.63;3.47;;;18.00;99.90;;;;;;5075267;28;20667;-72
2022/07/16 06:04:00;;;;;;;9.30;3.60;;;18.10;99.90;;;;;;5075154;28;20641;-73
2022/07/16 06:06:27;;;;;;;14.40;2.80;;;18.30;99.90;;;;;;5075243;28;21091;-73
2022/07/16 06:08:54;;;;;;;9.00;3.57;;;18.40;99.90;;;;;;5075541;28;20598;-73
2022/07/16 06:11:20;;;;;;;6.93;3.07;;;18.50;99.90;;;;;;5074950;28;20582;-73
2022/07/16 06:13:46;;;;;;;6.90;3.63;;;18.70;99.90;;;;;;5073375;28;20630;-73
2022/07/16 06:16:13;;;;;;;5.90;3.17;;;18.70;99.90;;;;;;5075045;28;20599;-72
2022/07/16 06:18:41;;;;;;;13.23;4.10;;;18.80;99.90;;;;;;5075275;28;20570;-73
2022/07/16 06:21:08;;;;;;;2.83;2.63;;;18.80;99.90;;;;;;5074770;28;21116;-73
2022/07/16 06:23:35;;;;;;;9.20;3.10;;;18.80;99.90;;;;;;5073750;28;20649;-73
2022/07/16 06:26:01;;;;;;;5.50;3.10;;;19.00;99.90;;;;;;5074192;28;20628;-73
2022/07/16 06:28:28;;;;;;;8.07;3.60;;;19.10;99.90;;;;;;5074650;28;20590;-73
2022/07/16 06:30:54;;;;;;;9.40;3.83;;;19.30;99.90;;;;;;5074062;28;20614;-73
2022/07/16 06:33:21;;;;;;;5.83;3.07;;;19.40;99.90;;;;;;5073577;28;20651;-73
2022/07/16 06:35:47;;;;;;;5.50;3.07;;;19.50;99.90;;;;;;5073873;28;20589;-73
2022/07/16 06:38:14;;;;;;;2.90;2.70;;;19.40;99.90;;;;;;5073976;28;20583;-73
2022/07/16 06:40:43;;;;;;;2.97;2.53;;;19.50;99.90;;;;;;5074039;28;21033;-73
2022/07/16 06:43:10;;;;;;;2.80;2.60;;;19.70;99.90;;;;;;5074288;28;20632;-74
2022/07/16 06:45:37;;;;;;;4.77;2.80;;;19.70;99.90;;;;;;5073670;28;21026;-74
2022/07/16 06:48:03;;;;;;;3.70;3.40;;;19.70;99.90;;;;;;5074058;28;21113;-74
2022/07/16 06:50:30;;;;;;;3.23;2.70;;;19.70;99.90;;;;;;5074153;28;20579;-74
2022/07/16 06:52:56;;;;;;;6.53;3.30;;;19.90;99.90;;;;;;5073437;28;20614;-73
2022/07/16 06:55:23;;;;;;;3.93;2.90;;;20.10;99.90;;;;;;5074219;28;20994;-74
2022/07/16 06:57:49;;;;;;;5.53;3.40;;;20.20;99.90;;;;;;5073239;28;21224;-73
2022/07/16 07:00:16;;;;;;;7.27;3.30;;;20.30;99.90;;;;;;5073801;28;20594;-73
2022/07/16 07:02:42;;;;;;;7.90;3.07;;;20.20;99.90;;;;;;5056326;28;20645;-73
2022/07/16 07:05:09;;;;;;;4.47;3.60;;;20.40;99.90;;;;;;5074206;28;20634;-73
2022/07/16 07:07:35;;;;;;;5.30;3.13;;;20.50;99.90;;;;;;5055435;28;20630;-74
2022/07/16 07:10:02;;;;;;;4.23;3.17;;;20.60;99.90;;;;;;5073437;28;21080;-74
2022/07/16 07:12:29;;;;;;;3.80;2.87;;;20.70;99.90;;;;;;5073357;28;20575;-73
2022/07/16 07:14:55;;;;;;;5.13;3.17;;;20.70;99.90;;;;;;5073223;28;20633;-73
2022/07/16 07:17:22;;;;;;;3.73;3.13;;;20.90;99.90;;;;;;5055161;28;20615;-73
2022/07/16 07:19:48;;;;;;;3.80;3.07;;;21.00;99.90;;;;;;5073711;28;20574;-73
2022/07/16 07:22:15;;;;;;;3.10;2.60;;;21.00;99.90;;;;;;5055493;28;20582;-74
2022/07/16 07:24:41;;;;;;;6.10;3.37;;;21.10;99.90;;;;;;5074521;28;20662;-71
2022/07/16 07:27:08;;;;;;;3.53;3.23;;;21.30;99.90;;;;;;5073339;28;21049;-72
2022/07/16 07:29:34;;;;;;;4.00;2.90;;;21.30;99.90;;;;;;5074695;28;20582;-72
2022/07/16 07:32:00;;;;;;;3.93;3.63;;;20.90;99.90;;;;;;5074071;28;20997;-72
2022/07/16 07:34:27;;;;;;;6.70;3.07;;;20.80;99.90;;;;;;5073974;28;20693;-72
2022/07/16 07:36:53;;;;;;;6.57;3.30;;;20.80;99.90;;;;;;5073413;28;20578;-72
2022/07/16 07:39:20;;;;;;;5.50;3.93;;;21.10;99.90;;;;;;5073322;28;20707;-72
2022/07/16 07:41:47;;;;;;;3.70;3.13;;;21.10;99.90;;;;;;5073073;28;20970;-72
2022/07/16 07:44:13;;;;;;;3.27;2.97;;;21.50;99.90;;;;;;5074262;28;20633;-72
2022/07/16 07:46:39;;;;;;;5.20;3.00;;;21.90;99.90;;;;;;5073980;28;21104;-72
2022/07/16 07:49:08;;;;;;;3.70;2.70;;;21.90;99.90;;;;;;5073428;28;20953;-72
2022/07/16 07:51:35;;;;;;;4.83;2.93;;;21.70;99.90;;;;;;5073416;28;20579;-72
2022/07/16 07:54:01;;;;;;;5.40;3.10;;;21.60;99.90;;;;;;5072599;28;20622;-72
2022/07/16 07:56:28;;;;;;;3.73;3.43;;;21.60;99.90;;;;;;5072252;28;20958;-72
2022/07/16 07:58:54;;;;;;;8.47;3.20;;;21.90;99.90;;;;;;5072488;28;20626;-72
2022/07/16 08:01:20;;;;;;;3.77;2.33;;;22.00;99.90;;;;;;5074259;28;20582;-72
2022/07/16 08:03:47;;;;;;;2.90;2.67;;;22.30;99.90;;;;;;5056028;28;20617;-72
2022/07/16 08:06:13;;;;;;;12.40;3.03;;;22.70;99.90;;;;;;5074182;28;20626;-72
2022/07/16 08:08:40;;;;;;;5.80;2.93;;;22.70;99.90;;;;;;5073661;28;20720;-72
2022/07/16 08:11:06;;;;;;;3.70;3.40;;;22.80;99.90;;;;;;5078392;28;20582;-72
2022/07/16 08:13:33;;;;;;;2.90;2.33;;;22.80;99.90;;;;;;5078067;28;20566;-72
2022/07/16 08:15:59;;;;;;;2.40;2.20;;;22.80;99.90;;;;;;5078315;28;20588;-72
2022/07/16 08:18:26;;;;;;;3.63;2.43;;;23.10;99.90;;;;;;5078011;28;20582;-72
2022/07/16 08:20:52;;;;;;;2.80;2.57;;;23.20;99.90;;;;;;5076166;28;20626;-72
2022/07/16 08:25:44;;;;;;;5.50;2.40;;;23.20;99.90;;;;;;5077636;28;20575;-73
2022/07/16 08:26:05;;;;;;;9.10;3.20;;;23.10;99.90;;;;;;5076883;28;20633;-72
2022/07/16 08:28:32;;;;;;;4.13;2.60;;;23.30;99.90;;;;;;5059545;28;20570;-72
2022/07/16 08:30:58;;;;;;;7.30;2.73;;;23.50;99.90;;;;;;5076481;28;20675;-72
2022/07/16 08:33:24;;;;;;;3.50;2.60;;;23.30;99.90;;;;;;5077268;28;20610;-72
2022/07/16 08:35:51;;;;;;;3.53;2.40;;;23.50;99.90;;;;;;5076454;28;20630;-72
2022/07/16 08:38:17;;;;;;;2.43;2.23;;;23.50;99.90;;;;;;5076813;28;20582;-72
2022/07/16 08:40:46;;;;;;;4.83;2.50;;;23.60;99.90;;;;;;5077044;28;20675;-72
2022/07/16 08:43:13;;;;;;;3.10;2.30;;;23.50;99.90;;;;;;5076436;28;20621;-72
2022/07/16 08:45:40;;;;;;;4.60;2.77;;;23.60;99.90;;;;;;5076591;28;21041;-72
2022/07/16 08:48:07;;;;;;;14.57;3.10;;;23.50;99.90;;;;;;5076403;28;20683;-72
2022/07/16 08:50:33;;;;;;;3.27;2.50;;;23.50;99.90;;;;;;5076292;28;20582;-73
2022/07/16 08:53:01;;;;;;;2.60;2.40;;;23.50;99.90;;;;;;5058207;28;20574;-72
2022/07/16 08:55:29;;;;;;;5.63;2.30;;;23.60;99.90;;;;;;5077232;28;20614;-72
2022/07/16 08:57:57;;;;;;;3.63;2.50;;;23.60;99.90;;;;;;5077287;28;20570;-71
2022/07/16 09:00:24;;;;;;;6.80;3.10;;;23.90;99.90;;;;;;5076732;28;20684;-72
2022/07/16 09:02:50;;;;;;;2.60;2.40;;;23.90;99.90;;;;;;5076684;28;20610;-72
2022/07/16 09:05:17;;;;;;;3.37;2.47;;;23.90;99.90;;;;;;5075864;28;20618;-72
2022/07/16 09:07:45;;;;;;;3.77;2.73;;;23.90;99.90;;;;;;5075862;28;20625;-72
2022/07/16 09:10:14;;;;;;;11.00;3.33;;;24.00;99.90;;;;;;5075824;28;20709;-71
2022/07/16 09:12:44;;;;;;;5.60;2.47;;;23.90;99.90;;;;;;5058589;28;20633;-71
2022/07/16 09:15:40;;;;;;;2.60;2.40;;;24.10;99.90;;;;;;5068435;28;20579;-72
2022/07/16 09:18:09;;;;;;;4.03;2.60;;;24.40;99.90;;;;;;5076980;28;20725;-73
2022/07/16 09:20:44;;;;;;;5.80;2.93;;;24.30;99.90;;;;;;5076035;28;20977;-72
2022/07/16 09:23:35;;;;;;;2.50;2.30;;;24.30;99.90;;;;;;5075091;28;20618;-73
2022/07/16 09:26:04;;;;;;;2.90;2.40;;;24.40;99.90;;;;;;5075898;28;20606;-72
2022/07/16 09:28:43;;;;;;;4.50;2.50;;;24.50;99.90;;;;;;5059475;28;20590;-73
2022/07/16 09:31:11;;;;;;;3.00;2.40;;;24.50;99.90;;;;;;5077625;28;20585;-73
2022/07/16 09:33:38;;;;;;;2.60;2.40;;;24.90;99.90;;;;;;5077108;28;20610;-73
2022/07/16 09:36:10;;;;;;;3.43;2.40;;;24.70;99.90;;;;;;5076924;28;20621;-73
2022/07/16 09:38:52;;;;;;;2.70;2.57;;;24.70;99.90;;;;;;5076657;28;20587;-73
2022/07/16 09:41:20;;;;;;;3.13;2.93;;;24.50;99.90;;;;;;5076022;28;20653;-72
2022/07/16 09:43:47;;;;;;;2.70;2.30;;;24.30;99.90;;;;;;5076340;28;21000;-71
2022/07/16 09:46:19;;;;;;;2.67;2.47;;;24.60;99.90;;;;;;5076026;28;21211;-71
2022/07/16 09:48:47;;;;;;;2.60;2.43;;;24.60;99.90;;;;;;5076365;28;20575;-73
2022/07/16 09:51:16;;;;;;;2.60;2.40;;;24.10;99.90;;;;;;5058566;28;20667;-72
2022/07/16 09:53:43;;;;;;;2.90;2.30;;;24.60;99.90;;;;;;5076025;28;20571;-72
2022/07/16 09:56:14;;;;;;;2.33;2.20;;;24.70;99.90;;;;;;5074850;28;20632;-72
2022/07/16 09:58:46;;;;;;;2.50;2.30;;;24.70;99.90;;;;;;5075070;28;20618;-72
2022/07/16 10:01:13;;;;;;;2.13;1.93;;;24.70;99.90;;;;;;5075790;28;20940;-72
2022/07/16 10:03:40;;;;;;;5.13;2.20;;;25.10;99.90;;;;;;5075914;28;20579;-73
2022/07/16 10:06:08;;;;;;;2.40;2.30;;;25.20;99.90;;;;;;5075316;28;20657;-72
2022/07/16 10:08:35;;;;;;;3.73;2.37;;;25.10;99.90;;;;;;5075101;28;20625;-72
2022/07/16 10:11:03;;;;;;;4.87;2.57;;;25.30;99.90;;;;;;5057723;28;20609;-72
2022/07/16 10:13:31;;;;;;;2.40;2.00;;;25.30;99.90;;;;;;5074608;28;20614;-72
2022/07/16 10:15:58;;;;;;;2.10;2.00;;;25.60;99.90;;;;;;5075499;28;20574;-72
2022/07/16 10:18:30;;;;;;;3.13;2.50;;;25.20;99.90;;;;;;5075133;28;20989;-73
2022/07/16 10:21:12;;;;;;;5.23;2.30;;;25.30;99.90;;;;;;5075215;28;20590;-73
2022/07/16 10:23:41;;;;;;;4.30;2.27;;;25.70;99.90;;;;;;5074607;28;20642;-72
2022/07/16 10:26:16;;;;;;;5.17;2.67;;;25.90;99.90;;;;;;5075858;28;20984;-72
2022/07/16 10:28:52;;;;;;;3.57;3.37;;;25.80;99.90;;;;;;5074649;28;20626;-72
2022/07/16 10:31:38;;;;;;;7.07;2.70;;;25.70;99.90;;;;;;5056863;28;20576;-72
2022/07/16 10:34:16;;;;;;;2.40;2.20;;;26.20;99.90;;;;;;5073236;28;20621;-72
2022/07/16 10:36:54;;;;;;;2.47;2.37;;;26.20;99.90;;;;;;5074577;28;20957;-72
2022/07/16 10:39:23;;;;;;;2.57;2.37;;;26.00;99.90;;;;;;5074501;28;20646;-72
2022/07/16 10:41:51;;;;;;;4.10;2.43;;;26.20;99.90;;;;;;5075572;28;20983;-72
2022/07/16 10:44:19;;;;;;;3.43;2.90;;;26.40;99.90;;;;;;5075607;28;20582;-72
2022/07/16 10:46:57;;;;;;;2.50;2.40;;;26.40;99.90;;;;;;5056922;28;20673;-72
2022/07/16 10:49:29;;;;;;;2.43;2.20;;;25.90;99.90;;;;;;5075462;28;20570;-72
2022/07/16 10:52:00;;;;;;;2.50;2.33;;;26.00;99.90;;;;;;5074334;28;20667;-72
2022/07/16 10:54:31;;;;;;;2.67;2.57;;;26.50;99.90;;;;;;5075777;28;20589;-72
2022/07/16 10:57:00;;;;;;;2.60;2.30;;;26.20;99.90;;;;;;5075220;28;21179;-72
2022/07/16 10:59:32;;;;;;;4.30;2.90;;;26.20;99.90;;;;;;5074142;28;21175;-72
2022/07/16 11:02:04;;;;;;;2.67;2.47;;;26.30;99.90;;;;;;5074479;28;20645;-72
2022/07/16 11:04:39;;;;;;;2.30;2.20;;;26.50;99.90;;;;;;5074936;28;20585;-72
2022/07/16 11:07:09;;;;;;;3.93;2.17;;;25.60;99.90;;;;;;5074246;28;20570;-72
2022/07/16 11:09:55;;;;;;;3.30;3.10;;;26.10;99.90;;;;;;5074541;28;20615;-73
2022/07/16 11:12:27;;;;;;;2.77;2.57;;;25.80;99.90;;;;;;5075340;28;20574;-71
2022/07/16 11:14:56;;;;;;;2.67;2.47;;;25.90;99.90;;;;;;5074778;28;20582;-72
2022/07/16 11:17:28;;;;;;;3.00;2.80;;;26.10;99.90;;;;;;5074058;28;20633;-73
2022/07/16 11:19:56;;;;;;;4.20;2.37;;;26.70;99.90;;;;;;5073461;28;20623;-72
2022/07/16 11:22:28;;;;;;;2.70;2.50;;;26.90;99.90;;;;;;5073159;28;20625;-72
2022/07/16 11:24:58;;;;;;;4.60;2.53;;;26.60;99.90;;;;;;5072822;28;21004;-72
2022/07/16 11:27:33;;;;;;;4.43;2.13;;;26.10;99.90;;;;;;5073246;28;20740;-71
2022/07/16 11:30:02;;;;;;;3.13;2.87;;;26.10;99.90;;;;;;5073922;28;20586;-71
2022/07/16 11:32:29;;;;;;;3.03;2.67;;;26.50;99.90;;;;;;5073400;28;20621;-72
2022/07/16 11:34:56;;;;;;;2.57;2.47;;;26.50;99.90;;;;;;5073821;28;20570;-72
2022/07/16 11:37:22;;;;;;;2.73;2.50;;;27.30;99.90;;;;;;5073602;28;20573;-73
2022/07/16 11:39:57;;;;;;;4.43;3.10;;;28.00;99.90;;;;;;5073079;28;20653;-73
2022/07/16 11:42:24;;;;;;;6.13;2.87;;;28.00;99.90;;;;;;5055251;28;20653;-73
2022/07/16 11:44:51;;;;;;;2.73;2.50;;;27.50;99.90;;;;;;5076501;28;20601;-73
2022/07/16 11:47:17;;;;;;;2.60;2.43;;;27.60;99.90;;;;;;5078327;28;20602;-73
2022/07/16 11:49:45;;;;;;;2.70;2.60;;;27.50;99.90;;;;;;5078075;28;21178;-73
2022/07/16 11:52:20;;;;;;;4.10;3.20;;;27.60;99.90;;;;;;5079018;28;20575;-72
2022/07/16 11:54:48;;;;;;;2.80;2.70;;;27.60;99.90;;;;;;5077648;28;20613;-73
2022/07/16 11:57:15;;;;;;;2.93;2.77;;;27.60;99.90;;;;;;5077629;28;20567;-73
2022/07/16 11:59:55;;;;;;;3.57;3.30;;;27.70;99.90;;;;;;5077179;28;20625;-73
2022/07/16 12:02:24;;;;;;;3.10;2.90;;;29.10;99.90;;;;;;5076635;28;20580;-71
2022/07/16 12:04:59;;;;;;;3.70;3.37;;;28.40;99.90;;;;;;5076800;28;20591;-71
2022/07/16 12:07:26;;;;;;;3.27;3.07;;;29.30;99.90;;;;;;5076897;28;20640;-72
2022/07/16 12:09:55;;;;;;;3.80;3.00;;;29.10;99.90;;;;;;5076297;28;20574;-72
2022/07/16 12:12:28;;;;;;;3.17;2.60;;;28.90;99.90;;;;;;5076322;28;20947;-72
2022/07/16 12:14:57;;;;;;;3.07;2.90;;;28.20;99.90;;;;;;5076047;28;20590;-72
2022/07/16 12:17:28;;;;;;;6.87;3.27;;;27.40;99.90;;;;;;5058345;28;20706;-72
2022/07/16 12:20:24;;;;;;;3.33;3.03;;;27.80;99.90;;;;;;5076161;28;20582;-72
2022/07/16 12:22:59;;;;;;;3.10;2.90;;;28.40;99.90;;;;;;5076263;28;20585;-72
2022/07/16 12:25:33;;;;;;;3.40;3.20;;;28.70;99.90;;;;;;5075335;28;20676;-71
2022/07/16 12:28:04;;;;;;;3.83;3.27;;;29.70;99.90;;;;;;5076423;28;20571;-71
2022/07/16 12:30:42;;;;;;;3.60;3.30;;;28.60;99.90;;;;;;5075827;28;21156;-72
2022/07/16 12:35:52;;;;;;;4.33;3.00;;;29.70;99.90;;;;;;5076166;28;20570;-72
2022/07/16 12:39:04;;;;;;;4.63;3.30;;;31.00;99.90;;;;;;5075934;28;20639;-73
2022/07/16 12:41:41;;;;;;;3.70;3.00;;;31.00;99.90;;;;;;5076295;28;20583;-72
2022/07/16 12:44:11;;;;;;;3.30;3.00;;;31.50;99.90;;;;;;5076032;28;20582;-72
2022/07/16 12:46:41;;;;;;;4.30;3.10;;;30.80;99.90;;;;;;5076230;28;20637;-72
2022/07/16 12:49:10;;;;;;;3.10;2.90;;;30.70;99.90;;;;;;5075975;28;20582;-72
2022/07/16 12:51:43;;;;;;;8.53;3.40;;;30.70;99.90;;;;;;5076074;28;20952;-72
2022/07/16 12:54:12;;;;;;;3.57;3.37;;;30.00;99.90;;;;;;5075858;28;20570;-72
2022/07/16 12:59:25;;;;;;;3.43;3.23;;;31.40;99.90;;;;;;5076400;28;20579;-72
2022/07/16 13:01:52;;;;;;;3.60;3.40;;;32.40;99.90;;;;;;5075855;28;21008;-73
2022/07/16 13:04:19;;;;;;;4.67;3.63;;;32.20;99.90;;;;;;5076091;28;20578;-73